ITY1647 LIML-LIBD
Flight info
| Callsign | ITY1647 |
|---|---|
| Flight time | 1h 7m |
| Altitude | 35000 |
| Route | LOGDI DCT LURUT DCT RUPAX DCT AFCAM DCT BEFHE DCT EKMUR |
| Aircraft | A20N/M-SDE2E3FGHIRWXY/LB1 |
Departure
| Time | 2026-05-09 14:49 |
|---|---|
| Airport | Milano Linate Airport (LIML) |
Arrival
| Time | 2026-05-09 15:57 |
|---|---|
| Airport | Bari Karol Wojtyła International Airport (LIBD) |
| Time | Latitude | Longitude | Altitude | Speed | Heading |
|---|---|---|---|---|---|
| 2026-05-09 14:38 | 45.45623 | 9.28068 | 357 ft | 0 kts | 89° |
| 2026-05-09 14:43 | 45.45623 | 9.28069 | 357 ft | 0 kts | 89° |
| 2026-05-09 14:43 | 45.45624 | 9.28081 | 357 ft | 1 kts | 89° |
| 2026-05-09 14:43 | 45.45624 | 9.28105 | 358 ft | 3 kts | 90° |
| 2026-05-09 14:43 | 45.45615 | 9.28140 | 358 ft | 4 kts | 129° |
| 2026-05-09 14:44 | 45.45573 | 9.28157 | 358 ft | 8 kts | 178° |
| 2026-05-09 14:44 | 45.45497 | 9.28155 | 356 ft | 13 kts | 181° |
| 2026-05-09 14:44 | 45.45400 | 9.28148 | 356 ft | 14 kts | 182° |
| 2026-05-09 14:44 | 45.45302 | 9.28103 | 355 ft | 15 kts | 206° |
| 2026-05-09 14:45 | 45.45200 | 9.28049 | 354 ft | 16 kts | 182° |
| 2026-05-09 14:45 | 45.45096 | 9.28058 | 353 ft | 16 kts | 175° |
| 2026-05-09 14:45 | 45.44981 | 9.28061 | 353 ft | 14 kts | 199° |
| 2026-05-09 14:45 | 45.44927 | 9.27945 | 353 ft | 14 kts | 230° |
| 2026-05-09 14:46 | 45.44831 | 9.27940 | 353 ft | 14 kts | 173° |
| 2026-05-09 14:46 | 45.44722 | 9.27953 | 351 ft | 17 kts | 175° |
| 2026-05-09 14:46 | 45.44591 | 9.27967 | 348 ft | 20 kts | 175° |
| 2026-05-09 14:46 | 45.44436 | 9.27984 | 345 ft | 23 kts | 175° |
| 2026-05-09 14:47 | 45.44267 | 9.28001 | 342 ft | 25 kts | 176° |
| 2026-05-09 14:47 | 45.44085 | 9.28020 | 340 ft | 26 kts | 175° |
| 2026-05-09 14:47 | 45.43902 | 9.28041 | 340 ft | 25 kts | 175° |
| 2026-05-09 14:47 | 45.43731 | 9.28060 | 339 ft | 24 kts | 176° |
| 2026-05-09 14:48 | 45.43577 | 9.28076 | 338 ft | 16 kts | 174° |
| 2026-05-09 14:48 | 45.43477 | 9.28073 | 338 ft | 14 kts | 210° |
| 2026-05-09 14:48 | 45.43445 | 9.27952 | 339 ft | 13 kts | 264° |
| 2026-05-09 14:48 | 45.43456 | 9.27827 | 340 ft | 12 kts | 322° |
| 2026-05-09 14:49 | 45.43693 | 9.27793 | 344 ft | 72 kts | 355° |
| 2026-05-09 14:49 | 45.44461 | 9.27712 | 348 ft | 145 kts | 355° |
| 2026-05-09 14:49 | 45.45616 | 9.27600 | 714 ft | 173 kts | 355° |
| 2026-05-09 14:49 | 45.46783 | 9.27629 | 1561 ft | 170 kts | 3° |
| 2026-05-09 14:50 | 45.47932 | 9.27783 | 2378 ft | 168 kts | 5° |
| 2026-05-09 14:50 | 45.49075 | 9.27952 | 3027 ft | 169 kts | 6° |
| 2026-05-09 14:50 | 45.50237 | 9.28135 | 3657 ft | 171 kts | 6° |
| 2026-05-09 14:50 | 45.51388 | 9.28679 | 4095 ft | 185 kts | 40° |
| 2026-05-09 14:51 | 45.52050 | 9.30242 | 4567 ft | 195 kts | 83° |
| 2026-05-09 14:51 | 45.51989 | 9.31929 | 5151 ft | 196 kts | 107° |
| 2026-05-09 14:51 | 45.51304 | 9.33797 | 5777 ft | 205 kts | 126° |
| 2026-05-09 14:51 | 45.50453 | 9.35501 | 6254 ft | 222 kts | 125° |
| 2026-05-09 14:52 | 45.49527 | 9.37408 | 6595 ft | 247 kts | 125° |
| 2026-05-09 14:52 | 45.48490 | 9.39412 | 7135 ft | 263 kts | 135° |
| 2026-05-09 14:52 | 45.47034 | 9.41127 | 7689 ft | 279 kts | 145° |
| 2026-05-09 14:52 | 45.45419 | 9.42713 | 8504 ft | 285 kts | 146° |
| 2026-05-09 14:53 | 45.43816 | 9.44288 | 9376 ft | 288 kts | 145° |
| 2026-05-09 14:53 | 45.42174 | 9.45944 | 10211 ft | 292 kts | 144° |
| 2026-05-09 14:53 | 45.40508 | 9.47653 | 10808 ft | 304 kts | 144° |
| 2026-05-09 14:53 | 45.38757 | 9.49470 | 11209 ft | 322 kts | 144° |
| 2026-05-09 14:54 | 45.36917 | 9.51394 | 11774 ft | 334 kts | 144° |
| 2026-05-09 14:54 | 45.35095 | 9.53311 | 12525 ft | 338 kts | 144° |
| 2026-05-09 14:54 | 45.33201 | 9.55305 | 13273 ft | 342 kts | 144° |
| 2026-05-09 14:54 | 45.31308 | 9.57299 | 13975 ft | 347 kts | 144° |
| 2026-05-09 14:55 | 45.29373 | 9.59336 | 14672 ft | 352 kts | 144° |
| 2026-05-09 14:55 | 45.27388 | 9.61423 | 15364 ft | 357 kts | 145° |
| 2026-05-09 14:55 | 45.25386 | 9.63527 | 16035 ft | 362 kts | 145° |
| 2026-05-09 14:55 | 45.23366 | 9.65647 | 16685 ft | 366 kts | 146° |
| 2026-05-09 14:56 | 45.21532 | 9.67571 | 17255 ft | 370 kts | 146° |
| 2026-05-09 14:56 | 45.19463 | 9.69741 | 17874 ft | 375 kts | 146° |
| 2026-05-09 14:56 | 45.17345 | 9.71959 | 18470 ft | 380 kts | 147° |
| 2026-05-09 14:56 | 45.15243 | 9.74159 | 19045 ft | 384 kts | 147° |
| 2026-05-09 14:57 | 45.13090 | 9.76408 | 19616 ft | 389 kts | 147° |
| 2026-05-09 14:57 | 45.10901 | 9.78694 | 20187 ft | 393 kts | 147° |
| 2026-05-09 14:57 | 45.08728 | 9.80961 | 20740 ft | 397 kts | 147° |
| 2026-05-09 14:57 | 45.06486 | 9.83298 | 21294 ft | 401 kts | 147° |
| 2026-05-09 14:58 | 45.04238 | 9.85639 | 21842 ft | 405 kts | 148° |
| 2026-05-09 14:58 | 45.01962 | 9.88006 | 22380 ft | 409 kts | 148° |
| 2026-05-09 14:58 | 44.99674 | 9.90382 | 22905 ft | 413 kts | 148° |
| 2026-05-09 14:58 | 44.97366 | 9.92776 | 23422 ft | 417 kts | 148° |
| 2026-05-09 14:59 | 44.95010 | 9.95218 | 23950 ft | 421 kts | 148° |
| 2026-05-09 14:59 | 44.92668 | 9.97643 | 24453 ft | 424 kts | 148° |
| 2026-05-09 14:59 | 44.90274 | 10.00120 | 24952 ft | 427 kts | 149° |
| 2026-05-09 14:59 | 44.87868 | 10.02607 | 25425 ft | 431 kts | 149° |
| 2026-05-09 15:00 | 44.85452 | 10.05100 | 25883 ft | 435 kts | 149° |
| 2026-05-09 15:00 | 44.83027 | 10.07603 | 26479 ft | 434 kts | 149° |
| 2026-05-09 15:00 | 44.80584 | 10.10120 | 27013 ft | 435 kts | 149° |
| 2026-05-09 15:00 | 44.78144 | 10.12629 | 27467 ft | 437 kts | 149° |
| 2026-05-09 15:01 | 44.73299 | 10.17894 | 28283 ft | 449 kts | 140° |
| 2026-05-09 15:01 | 44.71300 | 10.21282 | 28656 ft | 459 kts | 127° |
| 2026-05-09 15:01 | 44.69825 | 10.25310 | 29022 ft | 467 kts | 113° |
| 2026-05-09 15:02 | 44.68753 | 10.29611 | 29399 ft | 470 kts | 110° |
| 2026-05-09 15:02 | 44.67771 | 10.33964 | 29722 ft | 473 kts | 109° |
| 2026-05-09 15:02 | 44.66782 | 10.38372 | 30027 ft | 476 kts | 110° |
| 2026-05-09 15:02 | 44.65752 | 10.42866 | 30321 ft | 479 kts | 110° |
| 2026-05-09 15:03 | 44.64719 | 10.47283 | 30612 ft | 482 kts | 110° |
| 2026-05-09 15:03 | 44.63666 | 10.51726 | 30899 ft | 484 kts | 111° |
| 2026-05-09 15:03 | 44.62590 | 10.56220 | 31171 ft | 487 kts | 111° |
| 2026-05-09 15:03 | 44.61511 | 10.60705 | 31476 ft | 488 kts | 111° |
| 2026-05-09 15:04 | 44.60421 | 10.65230 | 31843 ft | 488 kts | 112° |
| 2026-05-09 15:04 | 44.59336 | 10.69726 | 32190 ft | 487 kts | 112° |
| 2026-05-09 15:06 | 44.51077 | 11.00887 | 34054 ft | 488 kts | 124° |
| 2026-05-09 15:06 | 44.49384 | 11.04992 | 34286 ft | 486 kts | 128° |
| 2026-05-09 15:06 | 44.47562 | 11.08968 | 34519 ft | 486 kts | 129° |
| 2026-05-09 15:06 | 44.45718 | 11.12917 | 34738 ft | 487 kts | 129° |
| 2026-05-09 15:07 | 44.43878 | 11.16855 | 34972 ft | 488 kts | 129° |
| 2026-05-09 15:07 | 44.40195 | 11.24770 | 35058 ft | 490 kts | 129° |
| 2026-05-09 15:08 | 44.36653 | 11.32402 | 35060 ft | 491 kts | 128° |
| 2026-05-09 15:08 | 44.31074 | 11.44413 | 35061 ft | 491 kts | 128° |
| 2026-05-09 15:10 | 44.16576 | 11.75395 | 35060 ft | 493 kts | 129° |
| 2026-05-09 15:11 | 44.12823 | 11.83358 | 35061 ft | 493 kts | 129° |
| 2026-05-09 15:11 | 44.09074 | 11.91302 | 35070 ft | 484 kts | 129° |
| 2026-05-09 15:12 | 44.05394 | 11.99076 | 35075 ft | 479 kts | 130° |
| 2026-05-09 15:12 | 44.01716 | 12.06809 | 35082 ft | 479 kts | 130° |
| 2026-05-09 15:13 | 43.98048 | 12.14506 | 35085 ft | 479 kts | 129° |
| 2026-05-09 15:13 | 43.94368 | 12.22209 | 35087 ft | 479 kts | 129° |
| 2026-05-09 15:14 | 43.90679 | 12.29916 | 35088 ft | 479 kts | 129° |
| 2026-05-09 15:14 | 43.86979 | 12.37620 | 35087 ft | 480 kts | 129° |
| 2026-05-09 15:15 | 43.83277 | 12.45312 | 35087 ft | 480 kts | 129° |
| 2026-05-09 15:15 | 43.79575 | 12.52982 | 35088 ft | 480 kts | 129° |
| 2026-05-09 15:16 | 43.75859 | 12.60660 | 35093 ft | 480 kts | 129° |
| 2026-05-09 15:16 | 43.72141 | 12.68327 | 35096 ft | 481 kts | 130° |
| 2026-05-09 15:17 | 43.68380 | 12.76059 | 35103 ft | 482 kts | 130° |
| 2026-05-09 15:17 | 43.64657 | 12.83694 | 35110 ft | 482 kts | 130° |
| 2026-05-09 15:18 | 43.60905 | 12.91367 | 35113 ft | 482 kts | 130° |
| 2026-05-09 15:18 | 43.57147 | 12.99034 | 35115 ft | 483 kts | 130° |
| 2026-05-09 15:19 | 43.53378 | 13.06701 | 35112 ft | 484 kts | 130° |
| 2026-05-09 15:19 | 43.49604 | 13.14358 | 35108 ft | 484 kts | 130° |
| 2026-05-09 15:20 | 43.43932 | 13.25833 | 35097 ft | 484 kts | 130° |
| 2026-05-09 15:21 | 43.40129 | 13.33497 | 35092 ft | 485 kts | 130° |
| 2026-05-09 15:21 | 43.36333 | 13.41131 | 35090 ft | 485 kts | 130° |
| 2026-05-09 15:22 | 43.32525 | 13.48771 | 35089 ft | 485 kts | 130° |
| 2026-05-09 15:22 | 43.28594 | 13.56285 | 35089 ft | 483 kts | 134° |
| 2026-05-09 15:23 | 43.24380 | 13.63381 | 35089 ft | 482 kts | 135° |
| 2026-05-09 15:23 | 43.20141 | 13.70478 | 35088 ft | 482 kts | 135° |
| 2026-05-09 15:24 | 43.15910 | 13.77608 | 35089 ft | 482 kts | 135° |
| 2026-05-09 15:24 | 43.11713 | 13.84692 | 35089 ft | 481 kts | 135° |
| 2026-05-09 15:25 | 43.07482 | 13.91824 | 35089 ft | 481 kts | 135° |
| 2026-05-09 15:25 | 43.03281 | 13.98892 | 35089 ft | 481 kts | 135° |
| 2026-05-09 15:26 | 42.96926 | 14.09544 | 35089 ft | 484 kts | 135° |
| 2026-05-09 15:26 | 42.92689 | 14.16631 | 35090 ft | 484 kts | 135° |
| 2026-05-09 15:27 | 42.88431 | 14.23734 | 35088 ft | 484 kts | 135° |
| 2026-05-09 15:27 | 42.84158 | 14.30843 | 35089 ft | 484 kts | 135° |
| 2026-05-09 15:28 | 42.79916 | 14.37885 | 35089 ft | 484 kts | 135° |
| 2026-05-09 15:28 | 42.75632 | 14.44979 | 35089 ft | 484 kts | 135° |
| 2026-05-09 15:29 | 42.71359 | 14.52039 | 35089 ft | 484 kts | 135° |
| 2026-05-09 15:29 | 42.67092 | 14.59071 | 35089 ft | 484 kts | 135° |
| 2026-05-09 15:30 | 42.62805 | 14.66119 | 35087 ft | 484 kts | 135° |
| 2026-05-09 15:30 | 42.58522 | 14.73144 | 35088 ft | 484 kts | 135° |
| 2026-05-09 15:31 | 42.54259 | 14.80120 | 35089 ft | 484 kts | 135° |
| 2026-05-09 15:31 | 42.49967 | 14.87124 | 35089 ft | 485 kts | 135° |
| 2026-05-09 15:32 | 42.45661 | 14.94137 | 35089 ft | 485 kts | 135° |
| 2026-05-09 15:32 | 42.41351 | 15.01143 | 35004 ft | 481 kts | 135° |
| 2026-05-09 15:33 | 42.39225 | 15.04595 | 34538 ft | 479 kts | 135° |
| 2026-05-09 15:33 | 42.37105 | 15.08028 | 33778 ft | 483 kts | 135° |
| 2026-05-09 15:33 | 42.34943 | 15.11517 | 32980 ft | 487 kts | 135° |
| 2026-05-09 15:33 | 42.32778 | 15.15010 | 32228 ft | 490 kts | 135° |
| 2026-05-09 15:34 | 42.30598 | 15.18526 | 31480 ft | 492 kts | 135° |
| 2026-05-09 15:34 | 42.28394 | 15.22077 | 30736 ft | 493 kts | 134° |
| 2026-05-09 15:34 | 42.26179 | 15.25646 | 30153 ft | 490 kts | 134° |
| 2026-05-09 15:34 | 42.24038 | 15.29092 | 29633 ft | 486 kts | 134° |
| 2026-05-09 15:35 | 42.21857 | 15.32600 | 29101 ft | 482 kts | 134° |
| 2026-05-09 15:35 | 42.19718 | 15.36035 | 28583 ft | 479 kts | 134° |
| 2026-05-09 15:35 | 42.17596 | 15.39436 | 28073 ft | 475 kts | 134° |
| 2026-05-09 15:35 | 42.15501 | 15.42788 | 27573 ft | 471 kts | 133° |
| 2026-05-09 15:36 | 42.13395 | 15.46156 | 27073 ft | 467 kts | 133° |
| 2026-05-09 15:36 | 42.11318 | 15.49474 | 26580 ft | 463 kts | 133° |
| 2026-05-09 15:36 | 42.09259 | 15.52760 | 26084 ft | 459 kts | 133° |
| 2026-05-09 15:36 | 42.07213 | 15.56019 | 25594 ft | 455 kts | 133° |
| 2026-05-09 15:37 | 42.05172 | 15.59268 | 25105 ft | 451 kts | 132° |
| 2026-05-09 15:37 | 42.03151 | 15.62482 | 24621 ft | 447 kts | 132° |
| 2026-05-09 15:37 | 42.01151 | 15.65660 | 24138 ft | 443 kts | 133° |
| 2026-05-09 15:37 | 41.99178 | 15.68793 | 23647 ft | 440 kts | 133° |
| 2026-05-09 15:38 | 41.97213 | 15.71908 | 23159 ft | 436 kts | 132° |
| 2026-05-09 15:38 | 41.95269 | 15.74986 | 22666 ft | 432 kts | 132° |
| 2026-05-09 15:38 | 41.93342 | 15.78033 | 22174 ft | 429 kts | 133° |
| 2026-05-09 15:38 | 41.91386 | 15.81042 | 21683 ft | 425 kts | 134° |
| 2026-05-09 15:39 | 41.89420 | 15.83994 | 21191 ft | 422 kts | 134° |
| 2026-05-09 15:39 | 41.87449 | 15.86888 | 20702 ft | 418 kts | 135° |
| 2026-05-09 15:39 | 41.85476 | 15.89724 | 20227 ft | 414 kts | 135° |
| 2026-05-09 15:39 | 41.83530 | 15.92508 | 19761 ft | 411 kts | 135° |
| 2026-05-09 15:40 | 41.81571 | 15.95310 | 19289 ft | 407 kts | 135° |
| 2026-05-09 15:40 | 41.79660 | 15.98045 | 18829 ft | 403 kts | 135° |
| 2026-05-09 15:40 | 41.77745 | 16.00786 | 18367 ft | 400 kts | 134° |
| 2026-05-09 15:40 | 41.75879 | 16.03456 | 17913 ft | 396 kts | 134° |
| 2026-05-09 15:41 | 41.74005 | 16.06137 | 17457 ft | 393 kts | 134° |
| 2026-05-09 15:41 | 41.72149 | 16.08792 | 17015 ft | 389 kts | 134° |
| 2026-05-09 15:41 | 41.70303 | 16.11428 | 16569 ft | 385 kts | 134° |
| 2026-05-09 15:41 | 41.68488 | 16.14018 | 16121 ft | 382 kts | 134° |
| 2026-05-09 15:42 | 41.66689 | 16.16584 | 15677 ft | 378 kts | 134° |
| 2026-05-09 15:42 | 41.64906 | 16.19125 | 15233 ft | 375 kts | 134° |
| 2026-05-09 15:42 | 41.63124 | 16.21660 | 14781 ft | 371 kts | 134° |
| 2026-05-09 15:42 | 41.61435 | 16.24062 | 14355 ft | 368 kts | 134° |
| 2026-05-09 15:43 | 41.59706 | 16.26519 | 13921 ft | 365 kts | 134° |
| 2026-05-09 15:43 | 41.57978 | 16.28971 | 13482 ft | 362 kts | 134° |
| 2026-05-09 15:43 | 41.56251 | 16.31421 | 13041 ft | 358 kts | 134° |
| 2026-05-09 15:43 | 41.54557 | 16.33823 | 12608 ft | 355 kts | 134° |
| 2026-05-09 15:44 | 41.52890 | 16.36185 | 12179 ft | 352 kts | 134° |
| 2026-05-09 15:44 | 41.51207 | 16.38566 | 11741 ft | 349 kts | 134° |
| 2026-05-09 15:44 | 41.49556 | 16.40900 | 11345 ft | 344 kts | 133° |
| 2026-05-09 15:44 | 41.47945 | 16.43175 | 11106 ft | 335 kts | 133° |
| 2026-05-09 15:45 | 41.46372 | 16.45396 | 10855 ft | 327 kts | 133° |
| 2026-05-09 15:45 | 41.44815 | 16.47591 | 10601 ft | 319 kts | 133° |
| 2026-05-09 15:45 | 41.43312 | 16.49711 | 10349 ft | 312 kts | 133° |
| 2026-05-09 15:45 | 41.41788 | 16.51678 | 10095 ft | 305 kts | 142° |
| 2026-05-09 15:46 | 41.39988 | 16.53124 | 9880 ft | 296 kts | 156° |
| 2026-05-09 15:46 | 41.38099 | 16.54133 | 9681 ft | 288 kts | 160° |
| 2026-05-09 15:46 | 41.36268 | 16.55020 | 9479 ft | 280 kts | 160° |
| 2026-05-09 15:46 | 41.34458 | 16.55895 | 9256 ft | 274 kts | 160° |
| 2026-05-09 15:47 | 41.32675 | 16.56771 | 8943 ft | 272 kts | 159° |
| 2026-05-09 15:47 | 41.30927 | 16.57643 | 8611 ft | 270 kts | 159° |
| 2026-05-09 15:47 | 41.29168 | 16.58527 | 8271 ft | 269 kts | 159° |
| 2026-05-09 15:47 | 41.27433 | 16.59400 | 7935 ft | 268 kts | 159° |
| 2026-05-09 15:48 | 41.25704 | 16.60268 | 7596 ft | 266 kts | 159° |
| 2026-05-09 15:48 | 41.23960 | 16.61145 | 7258 ft | 265 kts | 160° |
| 2026-05-09 15:48 | 41.22189 | 16.61590 | 6917 ft | 261 kts | 188° |
| 2026-05-09 15:48 | 41.20578 | 16.60734 | 6742 ft | 248 kts | 221° |
| 2026-05-09 15:49 | 41.19575 | 16.58972 | 6559 ft | 236 kts | 248° |
| 2026-05-09 15:49 | 41.19001 | 16.56962 | 6299 ft | 233 kts | 252° |
| 2026-05-09 15:49 | 41.18466 | 16.54918 | 5969 ft | 233 kts | 252° |
| 2026-05-09 15:49 | 41.17923 | 16.52888 | 5674 ft | 232 kts | 251° |
| 2026-05-09 15:50 | 41.17373 | 16.50899 | 5434 ft | 228 kts | 251° |
| 2026-05-09 15:50 | 41.16829 | 16.48974 | 5278 ft | 220 kts | 251° |
| 2026-05-09 15:50 | 41.16296 | 16.47098 | 5137 ft | 211 kts | 250° |
| 2026-05-09 15:50 | 41.15708 | 16.45443 | 5042 ft | 198 kts | 233° |
| 2026-05-09 15:51 | 41.14572 | 16.44421 | 4644 ft | 202 kts | 196° |
| 2026-05-09 15:51 | 41.13201 | 16.44519 | 4279 ft | 203 kts | 158° |
| 2026-05-09 15:51 | 41.12144 | 16.45712 | 3894 ft | 202 kts | 119° |
| 2026-05-09 15:51 | 41.11797 | 16.47473 | 3555 ft | 199 kts | 94° |
| 2026-05-09 15:52 | 41.11650 | 16.51117 | 2983 ft | 191 kts | 91° |
| 2026-05-09 15:52 | 41.11586 | 16.52837 | 2792 ft | 183 kts | 91° |
| 2026-05-09 15:52 | 41.11515 | 16.54482 | 2602 ft | 175 kts | 91° |
| 2026-05-09 15:53 | 41.11438 | 16.56067 | 2430 ft | 170 kts | 91° |
| 2026-05-09 15:53 | 41.11363 | 16.57626 | 2280 ft | 170 kts | 92° |
| 2026-05-09 15:53 | 41.11285 | 16.59191 | 2133 ft | 169 kts | 91° |
| 2026-05-09 15:53 | 41.11208 | 16.60756 | 1979 ft | 169 kts | 91° |
| 2026-05-09 15:54 | 41.11127 | 16.62310 | 1832 ft | 168 kts | 91° |
| 2026-05-09 15:54 | 41.11051 | 16.63837 | 1690 ft | 165 kts | 91° |
| 2026-05-09 15:54 | 41.10979 | 16.65314 | 1566 ft | 153 kts | 88° |
| 2026-05-09 15:54 | 41.11180 | 16.66635 | 1392 ft | 141 kts | 69° |
| 2026-05-09 15:55 | 41.11500 | 16.67845 | 1168 ft | 138 kts | 66° |
| 2026-05-09 15:55 | 41.11866 | 16.69026 | 1008 ft | 138 kts | 67° |
| 2026-05-09 15:55 | 41.12195 | 16.70225 | 851 ft | 138 kts | 67° |
| 2026-05-09 15:55 | 41.12533 | 16.71414 | 677 ft | 136 kts | 67° |
| 2026-05-09 15:56 | 41.12866 | 16.72590 | 477 ft | 136 kts | 67° |
| 2026-05-09 15:56 | 41.13200 | 16.73768 | 290 ft | 136 kts | 67° |
| 2026-05-09 15:56 | 41.13528 | 16.74908 | 173 ft | 121 kts | 69° |
| 2026-05-09 15:56 | 41.13761 | 16.75737 | 150 ft | 71 kts | 70° |
| 2026-05-09 15:57 | 41.13898 | 16.76227 | 137 ft | 47 kts | 69° |
| 2026-05-09 15:57 | 41.13985 | 16.76533 | 130 ft | 23 kts | 69° |
| 2026-05-09 15:57 | 41.13983 | 16.76686 | 130 ft | 16 kts | 122° |
| 2026-05-09 15:57 | 41.13892 | 16.76678 | 132 ft | 14 kts | 215° |
| 2026-05-09 15:58 | 41.13819 | 16.76597 | 135 ft | 12 kts | 236° |
| 2026-05-09 15:58 | 41.13754 | 16.76557 | 137 ft | 11 kts | 163° |
| 2026-05-09 15:58 | 41.13683 | 16.76541 | 139 ft | 10 kts | 205° |
| 2026-05-09 15:58 | 41.13639 | 16.76467 | 141 ft | 10 kts | 246° |
| 2026-05-09 15:59 | 41.13611 | 16.76375 | 143 ft | 10 kts | 251° |
| 2026-05-09 15:59 | 41.13582 | 16.76281 | 145 ft | 11 kts | 226° |
| 2026-05-09 15:59 | 41.13516 | 16.76291 | 147 ft | 6 kts | 160° |
| 2026-05-09 15:59 | 41.13510 | 16.76294 | 147 ft | 0 kts | 159° |